Time;durP1;ratioP1;P1;durP2;ratioP2;P2;SDS_P1;SDS_P2;PMS_P1;PMS_P2;Temp;Humidity;BMP_temperature;BMP_pressure;BME280_temperature;BME280_humidity;BME280_pressure;Samples;Min_cycle;Max_cycle;Signal;HPM_P1;HPM_P2
2023/02/15 00:01:26;;;;;;;64.75;11.05;;;;;;;-3.80;100.00;99930.19;4190554;28;20084;-74
2023/02/15 00:03:26;;;;;;;47.35;10.80;;;;;;;-3.86;100.00;99931.16;4189615;28;20040;-74
2023/02/15 00:05:27;;;;;;;37.78;9.90;;;;;;;-3.96;100.00;99929.13;4195245;28;20052;-74
2023/02/15 00:07:27;;;;;;;35.55;9.63;;;;;;;-4.07;100.00;99922.72;4190648;28;20072;-74
2023/02/15 00:09:27;;;;;;;36.75;10.55;;;;;;;-4.06;100.00;99939.78;4190140;28;20044;-74
2023/02/15 00:11:40;;;;;;;45.22;11.73;;;;;;;-4.10;100.00;99942.16;4190705;28;20033;-74
2023/02/15 00:13:41;;;;;;;47.00;12.10;;;;;;;-4.15;100.00;99935.84;4189452;28;20033;-74
2023/02/15 00:15:41;;;;;;;21.15;9.77;;;;;;;-4.12;100.00;99932.66;4189678;28;20136;-74
2023/02/15 00:17:41;;;;;;;86.15;13.55;;;;;;;-4.18;100.00;99929.06;4189795;28;20232;-74
2023/02/15 00:19:42;;;;;;;75.85;13.02;;;;;;;-4.18;100.00;99944.47;4190986;28;20119;-74
2023/02/15 00:21:42;;;;;;;36.33;10.75;;;;;;;-4.19;100.00;99932.81;4191533;28;20044;-74
2023/02/15 00:23:43;;;;;;;34.55;10.48;;;;;;;-4.19;100.00;99934.72;4192749;28;20139;-74
2023/02/15 00:25:43;;;;;;;62.67;12.55;;;;;;;-4.14;100.00;99932.88;4193035;28;20694;-74
2023/02/15 00:27:44;;;;;;;49.85;11.32;;;;;;;-4.14;100.00;99932.88;4192491;28;20263;-74
2023/02/15 00:29:44;;;;;;;36.13;10.15;;;;;;;-4.09;100.00;99937.56;4193440;28;20500;-74
2023/02/15 00:31:44;;;;;;;44.47;12.77;;;;;;;-4.12;100.00;99936.19;4192819;28;20068;-74
2023/02/15 00:33:45;;;;;;;26.35;9.73;;;;;;;-4.00;100.00;99933.38;4192538;28;20228;-74
2023/02/15 00:35:45;;;;;;;40.70;10.60;;;;;;;-4.02;100.00;99933.63;4198656;28;20075;-74
2023/02/15 00:37:45;;;;;;;29.63;9.98;;;;;;;-4.00;100.00;99930.69;4196475;28;20238;-74
2023/02/15 00:39:46;;;;;;;19.50;8.80;;;;;;;-3.98;100.00;99931.25;4192868;28;20637;-74
2023/02/15 00:41:46;;;;;;;17.17;8.80;;;;;;;-3.94;100.00;99924.28;4196175;28;20131;-74
2023/02/15 00:43:47;;;;;;;16.58;9.40;;;;;;;-3.92;100.00;99929.44;4192962;28;20053;-74
2023/02/15 00:45:47;;;;;;;16.88;9.52;;;;;;;-3.94;100.00;99927.00;4197536;28;20373;-74
2023/02/15 00:47:48;;;;;;;14.35;8.30;;;;;;;-3.95;100.00;99919.97;4196467;28;20040;-74
2023/02/15 00:49:48;;;;;;;16.48;9.40;;;;;;;-3.98;100.00;99918.53;4194345;28;20072;-74
2023/02/15 00:51:48;;;;;;;16.27;9.05;;;;;;;-3.96;100.00;99912.91;4195886;28;20079;-74
2023/02/15 00:53:49;;;;;;;20.67;8.55;;;;;;;-3.97;100.00;99919.41;4192314;28;20535;-74
2023/02/15 00:55:49;;;;;;;14.90;8.00;;;;;;;-3.94;100.00;99912.66;4194382;28;20459;-74
2023/02/15 00:57:50;;;;;;;13.63;7.30;;;;;;;-3.90;100.00;99916.50;4192341;28;20051;-74
2023/02/15 00:59:51;;;;;;;13.77;7.10;;;;;;;-3.85;100.00;99917.41;4186933;28;20053;-74
2023/02/15 01:01:51;;;;;;;18.00;6.90;;;;;;;-3.94;100.00;99904.53;4194628;28;20715;-75
2023/02/15 01:03:51;;;;;;;12.23;6.70;;;;;;;-3.94;100.00;99912.66;4190875;28;20048;-74
2023/02/15 01:05:52;;;;;;;13.13;6.90;;;;;;;-3.93;100.00;99904.28;4192839;28;20048;-74
2023/02/15 01:07:52;;;;;;;19.05;7.90;;;;;;;-3.92;100.00;99897.00;4194105;28;20151;-74
2023/02/15 01:09:52;;;;;;;14.70;6.75;;;;;;;-3.90;100.00;99901.09;4193893;28;20413;-74
2023/02/15 01:11:52;;;;;;;10.85;6.22;;;;;;;-3.83;100.00;99900.91;4191600;28;20048;-74
2023/02/15 01:13:56;;;;;;;19.13;6.57;;;;;;;-3.80;100.00;99893.13;4194733;28;20090;-74
2023/02/15 01:15:57;;;;;;;18.10;7.53;;;;;;;-3.83;100.00;99900.91;4196008;28;20126;-75
2023/02/15 01:17:57;;;;;;;14.02;6.93;;;;;;;-3.78;100.00;99895.59;4196551;28;20052;-75
2023/02/15 01:19:57;;;;;;;13.20;7.15;;;;;;;-3.77;100.00;99895.34;4196986;28;20354;-75
2023/02/15 01:21:57;;;;;;;14.30;7.10;;;;;;;-3.74;100.00;99891.31;4197610;28;20524;-74
2023/02/15 01:23:58;;;;;;;20.88;8.02;;;;;;;-3.69;100.00;99904.91;4196838;28;20076;-74
2023/02/15 01:26:01;;;;;;;15.93;7.53;;;;;;;-3.63;100.00;99898.50;4193846;28;20147;-75
2023/02/15 01:28:02;;;;;;;12.65;7.38;;;;;;;-3.61;100.00;99896.34;4189278;28;20048;-74
2023/02/15 01:30:04;;;;;;;21.40;8.68;;;;;;;-3.65;100.00;99897.09;4196447;28;20093;-75
2023/02/15 01:32:04;;;;;;;47.15;9.60;;;;;;;-3.67;100.00;99895.47;4193025;28;20036;-74
2023/02/15 01:34:05;;;;;;;28.30;8.02;;;;;;;-3.64;100.00;99901.44;4192939;28;20036;-75
2023/02/15 01:36:06;;;;;;;41.38;7.90;;;;;;;-3.56;100.00;99904.53;4198090;28;20079;-74
2023/02/15 01:38:06;;;;;;;16.63;7.30;;;;;;;-3.56;100.00;99899.09;4193800;28;20060;-74
2023/02/15 01:40:12;;;;;;;16.13;7.80;;;;;;;-3.56;100.00;99901.81;4192458;28;20875;-75
2023/02/15 01:42:20;;;;;;;31.27;7.57;;;;;;;-3.58;100.00;99908.56;4192471;28;20040;-74
2023/02/15 01:44:42;;;;;;;16.63;6.53;;;;;;;-3.65;100.00;99894.38;4195980;28;20032;-75
2023/02/15 01:46:51;;;;;;;12.93;6.50;;;;;;;-3.62;100.00;99899.31;4192817;28;20134;-75
2023/02/15 01:49:02;;;;;;;23.02;7.80;;;;;;;-3.69;100.00;99891.38;4192024;28;20047;-74
2023/02/15 01:51:02;;;;;;;16.38;6.18;;;;;;;-3.68;100.00;99893.00;4197227;28;20052;-75
2023/02/15 01:53:21;;;;;;;20.55;6.10;;;;;;;-3.75;100.00;99893.19;4191186;28;20036;-75
2023/02/15 01:55:24;;;;;;;26.95;7.18;;;;;;;-3.79;100.00;99885.84;4189421;28;20051;-74
2023/02/15 01:57:27;;;;;;;12.32;5.88;;;;;;;-3.76;100.00;99890.75;4193888;28;20037;-74
2023/02/15 01:59:28;;;;;;;35.25;6.88;;;;;;;-3.79;100.00;99892.06;4193544;28;20048;-74
2023/02/15 02:01:28;;;;;;;10.55;5.38;;;;;;;-3.83;100.00;99880.09;4186681;28;20068;-74
2023/02/15 02:03:51;;;;;;;19.83;6.07;;;;;;;-3.77;100.00;99886.41;4185479;28;20063;-74
2023/02/15 02:05:52;;;;;;;10.45;6.15;;;;;;;-3.72;100.00;99875.66;4183700;28;20122;-74
2023/02/15 02:07:56;;;;;;;14.82;6.05;;;;;;;-3.68;100.00;99874.06;4186216;28;20120;-74
2023/02/15 02:09:56;;;;;;;15.65;7.10;;;;;;;-3.60;100.00;99876.34;4183572;28;20057;-74
2023/02/15 02:11:56;;;;;;;11.35;6.40;;;;;;;-3.57;100.00;99870.41;4185643;28;20091;-74
2023/02/15 02:13:57;;;;;;;11.13;6.00;;;;;;;-3.52;100.00;99867.78;4181954;28;20071;-74
2023/02/15 02:16:22;;;;;;;14.43;6.93;;;;;;;-3.47;100.00;99862.44;4185821;28;20260;-74
2023/02/15 02:18:37;;;;;;;12.18;6.22;;;;;;;-3.42;100.00;99867.09;4187335;28;20276;-74
2023/02/15 02:20:44;;;;;;;10.50;5.82;;;;;;;-3.37;100.00;99871.75;4192243;28;20061;-74
2023/02/15 02:22:47;;;;;;;16.13;6.38;;;;;;;-3.38;100.00;99864.72;4186777;28;20052;-74
2023/02/15 02:25:16;;;;;;;14.23;7.07;;;;;;;-3.44;100.00;99858.41;4188427;28;20067;-74
2023/02/15 02:27:30;;;;;;;27.85;7.15;;;;;;;-3.46;100.00;99860.56;4188408;28;20080;-74
2023/02/15 02:29:44;;;;;;;36.95;9.82;;;;;;;-3.55;100.00;99868.31;4187437;28;20087;-74
2023/02/15 02:32:35;;;;;;;14.60;6.85;;;;;;;-3.58;100.00;99865.28;4192996;28;20048;-74
2023/02/15 02:34:48;;;;;;;17.55;6.47;;;;;;;-3.61;100.00;99865.78;4195900;28;20055;-74
2023/02/15 02:37:12;;;;;;;;;;;;;;;-3.62;100.00;99862.25;4188610;28;20055;-74
2023/02/15 02:39:37;;;;;;;12.98;6.32;;;;;;;-3.65;100.00;99862.75;4184980;28;20322;-74
2023/02/15 02:42:08;;;;;;;13.95;6.32;;;;;;;-3.67;100.00;99864.88;4191063;28;20424;-74
2023/02/15 02:44:16;;;;;;;10.48;6.07;;;;;;;-3.70;100.00;99866.22;4189291;28;20048;-75
2023/02/15 02:46:20;;;;;;;10.88;5.53;;;;;;;-3.69;100.00;99862.44;4191818;28;20063;-74
2023/02/15 02:48:25;;;;;;;11.57;6.30;;;;;;;-3.70;100.00;99862.69;4191262;28;20095;-74
2023/02/15 02:50:29;;;;;;;11.75;6.43;;;;;;;-3.69;100.00;99858.91;4190642;28;20052;-75
2023/02/15 02:52:42;;;;;;;15.15;6.45;;;;;;;-3.69;100.00;99856.22;4190560;28;20056;-75
2023/02/15 02:54:43;;;;;;;11.13;5.53;;;;;;;-3.65;100.00;99862.75;4191515;28;20049;-75
2023/02/15 02:56:48;;;;;;;13.68;6.68;;;;;;;-3.69;100.00;99861.63;4191013;28;20052;-75
2023/02/15 02:58:55;;;;;;;12.95;5.75;;;;;;;-3.73;100.00;99850.47;4190086;28;21057;-75
2023/02/15 03:01:01;;;;;;;11.05;5.93;;;;;;;-3.74;100.00;99854.25;4190371;28;20058;-74
2023/02/15 03:03:15;;;;;;;11.68;5.68;;;;;;;-3.78;100.00;99853.13;4189773;28;20311;-75
2023/02/15 03:05:21;;;;;;;15.88;6.38;;;;;;;-3.79;100.00;99851.50;4191039;28;20068;-74
2023/02/15 03:07:25;;;;;;;17.23;6.75;;;;;;;-3.84;100.00;99843.31;4190806;28;20125;-74
2023/02/15 03:09:34;;;;;;;14.40;6.68;;;;;;;-3.77;100.00;99845.84;4193933;28;20090;-74
2023/02/15 03:11:34;;;;;;;15.50;7.05;;;;;;;-3.79;100.00;99840.69;4191185;28;20409;-75
2023/02/15 03:13:35;;;;;;;16.05;7.25;;;;;;;-3.70;100.00;99841.88;4193549;28;20400;-75
2023/02/15 03:18:02;;;;;;;12.45;6.47;;;;;;;-3.69;100.00;99835.38;4190953;28;20471;-74
2023/02/15 03:20:10;;;;;;;13.18;6.28;;;;;;;-3.65;100.00;99833.00;4190015;28;20393;-74
2023/02/15 03:22:19;;;;;;;13.30;6.63;;;;;;;-3.65;100.00;99832.19;4189259;28;20107;-75
2023/02/15 03:24:23;;;;;;;15.95;7.25;;;;;;;-3.60;100.00;99830.34;4190081;28;20031;-74
2023/02/15 03:26:26;;;;;;;15.48;6.30;;;;;;;-3.64;100.00;99826.53;4190820;28;20615;-74
2023/02/15 03:28:42;;;;;;;11.70;6.28;;;;;;;-3.64;100.00;99821.13;4190531;28;20505;-75
2023/02/15 03:30:47;;;;;;;13.95;6.03;;;;;;;-3.62;100.00;99824.38;4190893;28;20044;-74
2023/02/15 03:32:49;;;;;;;14.02;6.43;;;;;;;-3.57;100.00;99823.63;4190141;28;20068;-74
2023/02/15 03:34:50;;;;;;;22.00;7.45;;;;;;;-3.61;100.00;99828.72;4190775;28;20048;-75
2023/02/15 03:36:58;;;;;;;9.68;5.90;;;;;;;-3.68;100.00;99823.50;4189664;28;20515;-75
2023/02/15 03:39:13;;;;;;;15.82;6.38;;;;;;;-3.75;100.00;99824.75;4190126;28;20101;-75
2023/02/15 03:41:16;;;;;;;17.73;7.68;;;;;;;-3.86;100.00;99818.41;4191496;28;20056;-75
2023/02/15 03:43:27;;;;;;;22.40;6.57;;;;;;;-3.89;100.00;99816.19;4190867;28;20042;-75
2023/02/15 03:45:32;;;;;;;42.90;10.50;;;;;;;-3.91;100.00;99817.50;4190121;28;20059;-75
2023/02/15 03:47:37;;;;;;;18.52;6.43;;;;;;;-3.94;100.00;99810.72;4190520;28;20135;-75
2023/02/15 03:50:02;;;;;;;22.27;6.38;;;;;;;-3.97;100.00;99814.75;4190629;28;20048;-75
2023/02/15 03:52:05;;;;;;;12.02;5.47;;;;;;;-3.93;100.00;99816.94;4189911;28;20102;-75
2023/02/15 03:54:41;;;;;;;10.82;6.20;;;;;;;-3.87;100.00;99816.78;4188986;28;20029;-75
2023/02/15 04:01:56;;;;;;;10.32;5.63;;;;;;;-3.80;100.00;99814.72;4187800;28;20455;-75
2023/02/15 04:01:57;;;;;;;16.63;6.30;;;;;;;-3.70;100.00;99811.31;4181747;28;20040;-75
2023/02/15 04:04:02;;;;;;;28.65;6.20;;;;;;;-3.73;100.00;99811.78;4188166;28;20044;-75
2023/02/15 04:06:03;;;;;;;11.45;6.35;;;;;;;-3.76;100.00;99812.31;4189772;28;20041;-75
2023/02/15 04:08:04;;;;;;;14.75;6.35;;;;;;;-3.75;100.00;99812.03;4190619;28;20362;-75
2023/02/15 04:12:24;;;;;;;12.52;5.28;;;;;;;-3.90;100.00;99806.44;4187339;28;20063;-75
2023/02/15 04:16:43;;;;;;;12.48;5.28;;;;;;;-3.87;100.00;99799.72;4193078;28;20114;-75
2023/02/15 04:25:40;;;;;;;18.65;5.72;;;;;;;-3.99;100.00;99797.13;4190532;28;20158;-75
2023/02/15 04:27:58;;;;;;;14.73;7.43;;;;;;;-4.05;100.00;99790.88;4191718;28;20052;-75
2023/02/15 04:30:02;;;;;;;21.48;6.55;;;;;;;-4.13;100.00;99785.88;4189531;28;20052;-75
2023/02/15 04:32:02;;;;;;;15.23;6.45;;;;;;;-4.11;100.00;99793.75;4191758;28;20040;-75
2023/02/15 04:34:03;;;;;;;18.67;5.38;;;;;;;-4.14;100.00;99791.53;4188243;28;20025;-75
2023/02/15 04:36:05;;;;;;;20.55;6.50;;;;;;;-4.20;100.00;99789.84;4192172;28;20032;-74
2023/02/15 04:38:05;;;;;;;14.80;6.47;;;;;;;-4.24;100.00;99786.78;4190208;28;20032;-75
2023/02/15 04:40:07;;;;;;;20.13;6.95;;;;;;;-4.27;100.00;99790.00;4191866;28;20504;-75
2023/02/15 04:42:07;;;;;;;19.85;6.75;;;;;;;-4.20;100.00;99792.53;4187206;28;20036;-75
2023/02/15 04:44:08;;;;;;;11.90;6.55;;;;;;;-4.20;100.00;99784.44;4190408;28;20094;-75
2023/02/15 04:46:08;;;;;;;12.13;6.25;;;;;;;-4.20;100.00;99789.84;4186171;28;20097;-75
2023/02/15 04:48:08;;;;;;;14.70;6.22;;;;;;;-4.20;100.00;99787.94;4188129;28;20042;-75
2023/02/15 04:50:09;;;;;;;9.40;5.55;;;;;;;-4.16;100.00;99780.97;4188256;28;20117;-75
2023/02/15 04:52:09;;;;;;;16.95;6.82;;;;;;;-4.18;100.00;99785.81;4191849;28;20028;-75
2023/02/15 04:54:10;;;;;;;9.50;5.75;;;;;;;-4.20;100.00;99782.53;4186708;28;20059;-75
2023/02/15 04:56:10;;;;;;;13.63;6.30;;;;;;;-4.27;100.00;99784.59;4184294;28;20032;-74
2023/02/15 04:58:11;;;;;;;15.43;5.63;;;;;;;-4.34;100.00;99773.97;4185870;28;20028;-75
2023/02/15 05:00:11;;;;;;;29.17;7.50;;;;;;;-4.44;100.00;99765.72;4187919;28;20042;-75
2023/02/15 05:02:12;;;;;;;19.73;6.22;;;;;;;-4.48;100.00;99763.75;4186767;28;21618;-75
2023/02/15 05:04:12;;;;;;;17.48;5.85;;;;;;;-4.48;100.00;99769.16;4188030;28;20063;-75
2023/02/15 05:06:12;;;;;;;27.23;7.43;;;;;;;-4.48;100.00;99769.16;4182056;28;20043;-75
2023/02/15 05:08:13;;;;;;;21.85;8.75;;;;;;;-4.52;100.00;99769.66;4190713;28;20069;-75
2023/02/15 05:10:14;;;;;;;16.45;6.57;;;;;;;-4.64;100.00;99776.22;4191841;28;20238;-75
2023/02/15 05:12:14;;;;;;;16.95;7.28;;;;;;;-4.75;100.00;99775.25;4192832;28;20036;-75
2023/02/15 05:14:16;;;;;;;19.23;6.70;;;;;;;-4.77;100.00;99773.88;4193850;28;20052;-75
2023/02/15 05:16:16;;;;;;;11.05;5.82;;;;;;;-4.87;100.00;99772.66;4198870;28;20029;-75
2023/02/15 05:18:19;;;;;;;16.80;5.53;;;;;;;-4.92;100.00;99772.56;4190565;28;20506;-75
2023/02/15 05:20:19;;;;;;;;;;;;;;;-4.98;100.00;99775.41;4194448;28;20031;-75
2023/02/15 05:22:19;;;;;;;23.27;5.43;;;;;;;-5.12;100.00;99773.03;4193578;28;20667;-75
2023/02/15 05:28:58;;;;;;;20.75;7.55;;;;;;;-5.33;100.00;99768.34;4193821;28;20044;-75
2023/02/15 05:31:09;;;;;;;24.88;5.68;;;;;;;-5.34;100.00;99769.41;4192812;28;20468;-74
2023/02/15 05:33:10;;;;;;;12.52;6.07;;;;;;;-5.29;100.00;99768.69;4192043;28;20063;-75
2023/02/15 05:35:15;;;;;;;32.28;8.32;;;;;;;-5.25;100.00;99764.44;4194915;28;20040;-75
2023/02/15 05:37:15;;;;;;;13.27;6.13;;;;;;;-5.22;100.00;99766.63;4193414;28;20130;-75
2023/02/15 05:39:15;;;;;;;18.02;5.72;;;;;;;-5.29;100.00;99763.28;4190443;28;20101;-75
2023/02/15 05:41:16;;;;;;;8.68;4.32;;;;;;;-5.28;100.00;99760.34;4192126;28;20080;-75
2023/02/15 05:43:16;;;;;;;12.60;5.68;;;;;;;-5.30;100.00;99767.84;4192183;28;20068;-75
2023/02/15 05:45:17;;;;;;;16.77;6.55;;;;;;;-5.32;100.00;99763.75;4192500;28;20442;-74
2023/02/15 05:47:17;;;;;;;11.80;5.35;;;;;;;-5.37;100.00;99767.22;4192737;28;20044;-74
2023/02/15 05:49:17;;;;;;;10.57;4.78;;;;;;;-5.37;100.00;99767.22;4191282;28;20045;-74
2023/02/15 05:51:18;;;;;;;10.60;5.38;;;;;;;-5.42;100.00;99756.31;4190995;28;20399;-74
2023/02/15 05:53:18;;;;;;;13.30;5.18;;;;;;;-5.36;100.00;99755.34;4191750;28;20041;-74
2023/02/15 05:55:18;;;;;;;15.88;6.00;;;;;;;-5.31;100.00;99763.50;4194738;28;20506;-74
2023/02/15 05:57:19;;;;;;;17.83;6.90;;;;;;;-5.24;100.00;99757.97;4191042;28;20048;-74
2023/02/15 05:59:19;;;;;;;11.98;5.47;;;;;;;-5.17;100.00;99762.16;4120969;28;20074;-74
2023/02/15 06:01:22;;;;;;;14.68;6.53;;;;;;;-5.24;100.00;99766.88;4177216;28;20315;-74
2023/02/15 06:03:23;;;;;;;14.45;6.55;;;;;;;-5.41;100.00;99749.84;4193159;28;20383;-74
2023/02/15 06:05:23;;;;;;;12.10;6.65;;;;;;;-5.35;100.00;99758.88;4189048;28;20045;-74
2023/02/15 06:07:24;;;;;;;12.18;5.95;;;;;;;-5.43;100.00;99770.88;4194389;28;20051;-74
2023/02/15 06:09:24;;;;;;;9.85;5.20;;;;;;;-5.53;100.00;99760.72;4194533;28;20090;-74
2023/02/15 06:11:24;;;;;;;9.82;5.60;;;;;;;-5.58;100.00;99759.78;4194516;28;20044;-74
2023/02/15 06:13:25;;;;;;;11.02;5.70;;;;;;;-5.62;100.00;99759.47;4190430;28;20036;-74
2023/02/15 06:15:26;;;;;;;11.35;6.22;;;;;;;-5.62;100.00;99759.47;4192278;28;20438;-74
2023/02/15 06:17:26;;;;;;;14.48;6.30;;;;;;;-5.64;100.00;99745.38;4191997;28;20045;-74
2023/02/15 06:19:26;;;;;;;10.88;6.32;;;;;;;-5.58;100.00;99746.31;4191336;28;20048;-74
2023/02/15 06:21:27;;;;;;;9.43;5.65;;;;;;;-5.51;100.00;99745.09;4191779;28;20121;-74
2023/02/15 06:23:28;;;;;;;12.63;6.45;;;;;;;-5.45;100.00;99740.63;4189071;28;20048;-74
2023/02/15 06:25:28;;;;;;;12.40;5.95;;;;;;;-5.38;100.00;99741.25;4191752;28;20041;-74
2023/02/15 06:27:29;;;;;;;12.50;6.13;;;;;;;-5.31;100.00;99735.72;4190736;28;20041;-74
2023/02/15 06:29:29;;;;;;;14.88;7.25;;;;;;;-5.30;100.00;99740.88;4190023;28;20059;-74
2023/02/15 06:31:29;;;;;;;12.55;6.25;;;;;;;-5.23;100.00;99738.03;4190484;28;20049;-74
2023/02/15 06:33:30;;;;;;;17.60;7.85;;;;;;;-5.23;100.00;99736.13;4190016;28;20427;-74
2023/02/15 06:35:30;;;;;;;11.15;6.53;;;;;;;-5.18;100.00;99736.22;4197601;28;20049;-74
2023/02/15 06:37:31;;;;;;;14.15;7.22;;;;;;;-5.16;100.00;99738.69;4195871;28;20119;-75
2023/02/15 06:39:31;;;;;;;13.77;7.30;;;;;;;-5.16;100.00;99726.00;4193764;28;20062;-74
2023/02/15 06:41:31;;;;;;;14.52;7.63;;;;;;;-5.19;100.00;99742.69;4193257;28;20133;-74
2023/02/15 06:43:33;;;;;;;13.23;6.93;;;;;;;-5.13;100.00;99741.72;4189240;28;20381;-74
2023/02/15 06:45:34;;;;;;;13.23;6.63;;;;;;;-5.14;100.00;99737.38;4190748;28;20473;-74
2023/02/15 06:47:34;;;;;;;12.10;5.90;;;;;;;-5.23;100.00;99736.13;4192928;28;20121;-74
2023/02/15 06:49:34;;;;;;;9.30;5.55;;;;;;;-5.31;100.00;99743.81;4190531;28;20052;-74
2023/02/15 06:51:35;;;;;;;12.38;6.28;;;;;;;-5.34;100.00;99747.81;4190142;28;20045;-74
2023/02/15 06:53:35;;;;;;;11.32;5.80;;;;;;;-5.39;100.00;99740.44;4189876;28;20423;-74
2023/02/15 06:55:36;;;;;;;18.23;6.88;;;;;;;-5.43;100.00;99738.50;4193052;28;20135;-74
2023/02/15 06:57:36;;;;;;;12.63;6.57;;;;;;;-5.41;100.00;99747.16;4191129;28;20093;-74
2023/02/15 06:59:36;;;;;;;12.82;6.45;;;;;;;-5.43;100.00;99744.72;4191722;28;20053;-74
2023/02/15 07:01:37;;;;;;;12.70;6.07;;;;;;;-5.43;100.00;99743.88;4191548;28;20037;-74
2023/02/15 07:03:38;;;;;;;11.82;6.43;;;;;;;-5.43;100.00;99749.28;4190603;28;20043;-74
2023/02/15 07:05:38;;;;;;;14.55;5.53;;;;;;;-5.47;100.00;99748.94;4191419;28;20485;-74
2023/02/15 07:07:38;;;;;;;9.43;5.85;;;;;;;-5.48;100.00;99751.88;4191713;28;20082;-74
2023/02/15 07:09:39;;;;;;;11.10;6.22;;;;;;;-5.48;100.00;99755.41;4191306;28;20131;-74
2023/02/15 07:13:58;;;;;;;13.20;6.35;;;;;;;-5.51;100.00;99752.38;4190969;28;20086;-74
2023/02/15 07:15:58;;;;;;;19.08;8.63;;;;;;;-5.57;100.00;99754.16;4192329;28;20083;-74
2023/02/15 07:17:58;;;;;;;20.08;8.95;;;;;;;-5.61;100.00;99753.00;4191313;28;20135;-74
2023/02/15 07:19:59;;;;;;;11.95;6.50;;;;;;;-5.61;100.00;99749.50;4191422;28;20051;-74
2023/02/15 07:21:59;;;;;;;14.40;6.57;;;;;;;-5.67;100.00;99745.88;4191819;28;20068;-74
2023/02/15 07:23:59;;;;;;;17.90;7.50;;;;;;;-5.69;100.00;99748.00;4190271;28;20468;-74
2023/02/15 07:26:01;;;;;;;13.48;7.60;;;;;;;-5.70;100.00;99747.19;4191724;28;20105;-74
2023/02/15 07:28:03;;;;;;;13.97;7.53;;;;;;;-5.74;100.00;99742.50;4190662;28;20040;-74
2023/02/15 07:30:07;;;;;;;11.65;6.35;;;;;;;-5.70;100.00;99741.78;4191843;28;20040;-74
2023/02/15 07:32:07;;;;;;;12.25;6.85;;;;;;;-5.61;100.00;99744.91;4195260;28;20034;-74
2023/02/15 07:34:07;;;;;;;12.02;6.75;;;;;;;-5.57;100.00;99735.28;4190789;28;20068;-74
2023/02/15 07:36:12;;;;;;;12.50;6.88;;;;;;;-5.47;100.00;99732.75;4190675;28;20074;-74
2023/02/15 07:38:12;;;;;;;13.40;7.65;;;;;;;-5.46;100.00;99723.63;4191179;28;20468;-74
2023/02/15 07:40:12;;;;;;;13.63;7.18;;;;;;;-5.40;100.00;99732.59;4190874;28;20112;-74
2023/02/15 07:42:13;;;;;;;12.23;6.80;;;;;;;-5.40;100.00;99738.00;4191519;28;20032;-74
2023/02/15 07:44:14;;;;;;;12.30;5.97;;;;;;;-5.34;100.00;99731.63;4190135;28;20082;-74
2023/02/15 07:46:16;;;;;;;11.13;6.18;;;;;;;-5.31;100.00;99725.75;4190570;28;20065;-74
2023/02/15 07:48:17;;;;;;;12.02;6.93;;;;;;;-5.30;100.00;99721.16;4191132;28;20128;-74
2023/02/15 07:50:17;;;;;;;27.65;14.30;;;;;;;-5.28;100.00;99727.16;4190947;28;20048;-74
2023/02/15 07:52:18;;;;;;;23.60;12.32;;;;;;;-5.27;100.00;99724.22;4191084;28;20048;-74
2023/02/15 07:54:18;;;;;;;28.05;14.10;;;;;;;-5.25;100.00;99727.47;4190282;28;20075;-74
2023/02/15 07:56:19;;;;;;;27.08;13.20;;;;;;;-5.29;100.00;99715.56;4191191;28;20248;-74
2023/02/15 07:58:19;;;;;;;16.48;9.40;;;;;;;-5.27;100.00;99715.31;4191423;28;20028;-74
2023/02/15 08:00:24;;;;;;;13.20;6.80;;;;;;;-5.23;100.00;99714.56;4190469;28;20071;-74
2023/02/15 08:02:24;;;;;;;13.27;7.00;;;;;;;-5.21;100.00;99706.25;4191499;28;20051;-74
2023/02/15 08:04:25;;;;;;;14.82;8.68;;;;;;;-5.17;100.00;99707.38;4190480;28;20048;-74
2023/02/15 08:06:29;;;;;;;15.82;8.40;;;;;;;-5.09;100.00;99717.75;4192071;28;20039;-74
2023/02/15 08:08:29;;;;;;;39.90;20.23;;;;;;;-4.99;100.00;99717.09;4193665;28;20469;-74
2023/02/15 08:12:49;;;;;;;15.15;8.15;;;;;;;-4.73;100.00;99712.88;4190365;28;20051;-74
2023/02/15 08:14:49;;;;;;;18.15;8.02;;;;;;;-4.65;100.00;99709.78;4190585;28;20049;-74
2023/02/15 08:16:51;;;;;;;15.88;7.93;;;;;;;-4.55;100.00;99716.16;4190879;28;20043;-74
2023/02/15 08:18:53;;;;;;;15.25;7.90;;;;;;;-4.37;100.00;99714.22;4192167;28;20392;-74
2023/02/15 08:20:53;;;;;;;16.67;7.05;;;;;;;-4.26;100.00;99702.47;4190546;28;20119;-74
2023/02/15 08:22:53;;;;;;;15.23;7.22;;;;;;;-4.15;100.00;99708.81;4190309;28;20075;-74
2023/02/15 08:24:54;;;;;;;15.20;7.35;;;;;;;-4.02;100.00;99709.25;4190949;28;20129;-74
2023/02/15 08:26:55;;;;;;;16.35;8.95;;;;;;;-3.92;100.00;99702.31;4191123;28;20123;-74
2023/02/15 08:28:58;;;;;;;19.27;8.95;;;;;;;-3.85;100.00;99705.66;4190684;28;20553;-74
2023/02/15 08:31:09;;;;;;;17.10;8.25;;;;;;;-3.77;100.00;99699.78;4189529;28;20151;-74
2023/02/15 08:33:10;;;;;;;13.10;6.30;;;;;;;-3.77;100.00;99702.50;4192646;28;20573;-74
2023/02/15 08:35:10;;;;;;;9.65;5.70;;;;;;;-3.77;100.00;99700.59;4190598;28;20045;-74
2023/02/15 08:37:10;;;;;;;18.52;6.97;;;;;;;-3.76;100.00;99709.53;4193691;28;20044;-74
2023/02/15 08:39:12;;;;;;;14.93;7.70;;;;;;;-3.75;100.00;99705.75;4190599;28;20380;-74
2023/02/15 08:41:22;;;;;;;16.58;7.88;;;;;;;-3.75;100.00;99695.75;4190534;28;20044;-74
2023/02/15 08:43:22;;;;;;;15.23;6.50;;;;;;;-3.69;100.00;99697.44;4192812;28;20064;-74
2023/02/15 08:45:25;;;;;;;11.20;6.90;;;;;;;-3.67;100.00;99699.88;4193753;28;20049;-74
2023/02/15 08:47:25;;;;;;;;;;;;;;;-3.61;100.00;99698.06;4194178;28;20404;-74
2023/02/15 08:49:25;;;;;;;25.25;7.40;;;;;;;-3.62;100.00;99702.66;4193589;28;19977;-74
2023/02/15 08:51:28;;;;;;;14.77;7.00;;;;;;;-3.57;100.00;99704.56;4193740;28;20040;-74
2023/02/15 08:53:28;;;;;;;10.77;6.50;;;;;;;-3.54;100.00;99713.00;4197146;28;20037;-74
2023/02/15 08:55:29;;;;;;;20.40;9.20;;;;;;;-3.48;100.00;99708.44;4193901;28;20068;-74
2023/02/15 08:57:29;;;;;;;20.88;10.73;;;;;;;-3.45;100.00;99706.06;4193604;28;20499;-74
2023/02/15 08:59:30;;;;;;;20.27;10.32;;;;;;;-3.39;100.00;99715.06;4191935;28;20048;-74
2023/02/15 09:01:32;;;;;;;16.08;8.77;;;;;;;-3.31;100.00;99725.41;4193785;28;20131;-74
2023/02/15 09:03:32;;;;;;;;;;;;;;;-3.19;100.00;99723.34;4193199;28;20041;-74
2023/02/15 09:05:33;;;;;;;16.88;8.30;;;;;;;-3.07;100.00;99728.56;4193682;28;19938;-74
2023/02/15 09:07:33;;;;;;;18.60;9.70;;;;;;;-3.00;100.00;99721.06;4193647;28;20487;-74
2023/02/15 09:09:33;;;;;;;19.70;10.50;;;;;;;-2.91;100.00;99724.09;4199539;28;20056;-74
2023/02/15 09:11:37;;;;;;;19.65;9.05;;;;;;;-2.85;100.00;99713.06;4193243;28;20071;-74
2023/02/15 09:13:39;;;;;;;16.92;8.65;;;;;;;-2.75;100.00;99716.91;4192540;28;20035;-74
2023/02/15 09:15:39;;;;;;;18.63;9.10;;;;;;;-2.65;100.00;99701.56;4194350;28;20060;-74
2023/02/15 09:17:40;;;;;;;15.13;8.70;;;;;;;-2.57;100.00;99711.06;4203586;28;20055;-74
2023/02/15 09:19:40;;;;;;;17.75;8.95;;;;;;;-2.54;100.00;99705.13;4193331;28;20354;-74
2023/02/15 09:21:41;;;;;;;19.48;9.02;;;;;;;-2.44;100.00;99705.19;4193375;28;20044;-74
2023/02/15 09:23:47;;;;;;;18.73;10.50;;;;;;;-2.38;100.00;99703.31;4193044;28;20481;-74
2023/02/15 09:25:47;;;;;;;18.45;9.38;;;;;;;-2.32;100.00;99694.97;4192604;28;20079;-74
2023/02/15 09:27:47;;;;;;;16.15;9.60;;;;;;;-2.26;100.00;99696.59;4192996;28;20037;-74
2023/02/15 09:29:48;;;;;;;21.13;11.10;;;;;;;-2.18;100.00;99703.41;4193579;28;20471;-74
2023/02/15 09:31:50;;;;;;;18.45;9.27;;;;;;;-2.10;100.00;99686.63;4193063;28;20041;-74
2023/02/15 09:33:50;;;;;;;22.23;9.75;;;;;;;-2.02;100.00;99693.44;4192070;28;20123;-74
2023/02/15 09:35:50;;;;;;;22.38;9.45;;;;;;;-2.02;100.00;99690.72;4193375;28;20133;-74
2023/02/15 09:37:51;;;;;;;18.58;9.40;;;;;;;-1.98;100.00;99699.97;4192542;28;20037;-74
2023/02/15 09:39:52;;;;;;;25.95;11.27;;;;;;;-1.86;100.00;99699.75;4194700;28;20463;-74
2023/02/15 09:41:54;;;;;;;23.88;11.27;;;;;;;-1.78;100.00;99688.38;4193026;28;20036;-74
2023/02/15 09:44:11;;;;;;;21.77;11.35;;;;;;;-1.67;100.00;99702.78;4192519;28;20040;-74
2023/02/15 09:46:21;;;;;;;20.67;10.05;;;;;;;-1.63;100.00;99693.03;4192301;28;20036;-74
2023/02/15 09:48:36;;;;;;;18.42;9.30;;;;;;;-1.59;100.00;99697.63;4193271;28;20159;-74
2023/02/15 09:50:58;;;;;;;26.25;12.88;;;;;;;-1.55;100.00;99697.91;4192035;28;20047;-74
2023/02/15 09:53:14;;;;;;;27.52;13.00;;;;;;;-1.45;100.00;99695.22;4192140;28;20401;-74